Time;durP1;ratioP1;P1;durP2;ratioP2;P2;SDS_P1;SDS_P2;PMS_P1;PMS_P2;Temp;Humidity;BMP_temperature;BMP_pressure;BME280_temperature;BME280_humidity;BME280_pressure;Samples;Min_cycle;Max_cycle;Signal;HPM_P1;HPM_P2
2023/01/25 00:01:56;;;;;;;42.35;17.95;;;;;;;;;;6042379;19;20305;-73
2023/01/25 00:04:06;;;;;;;43.17;20.25;;;;;;;;;;6041812;19;20002;-77
2023/01/25 00:06:26;;;;;;;41.97;18.42;;;;;;;;;;6048455;19;20007;-75
2023/01/25 00:08:41;;;;;;;42.88;17.50;;;;;;;;;;6024436;19;20637;-74
2023/01/25 00:10:55;;;;;;;39.83;18.05;;;;;;;;;;6016377;19;20517;-74
2023/01/25 00:13:06;;;;;;;41.75;17.85;;;;;;;;;;6056642;19;20018;-74
2023/01/25 00:15:25;;;;;;;44.78;18.08;;;;;;;;;;6015810;19;20131;-73
2023/01/25 00:17:35;;;;;;;42.88;20.05;;;;;;;;;;6040624;19;20704;-74
2023/01/25 00:19:50;;;;;;;41.13;16.98;;;;;;;;;;6053223;19;20011;-74
2023/01/25 00:22:10;;;;;;;37.65;17.63;;;;;;;;;;6010012;19;20022;-74
2023/01/25 00:24:30;;;;;;;49.55;20.42;;;;;;;;;;6034296;19;20019;-74
2023/01/25 00:26:51;;;;;;;40.75;17.30;;;;;;;;;;6003493;19;20094;-74
2023/01/25 00:29:10;;;;;;;44.03;18.63;;;;;;;;;;6022324;19;20103;-74
2023/01/25 00:31:28;;;;;;;40.40;17.20;;;;;;;;;;6006337;19;20380;-74
2023/01/25 00:33:53;;;;;;;38.22;17.65;;;;;;;;;;6025985;19;20010;-74
2023/01/25 00:36:10;;;;;;;44.17;18.88;;;;;;;;;;6043994;19;20007;-74
2023/01/25 00:38:39;;;;;;;51.58;19.20;;;;;;;;;;6022629;19;20678;-74
2023/01/25 00:40:52;;;;;;;40.67;19.58;;;;;;;;;;5997946;19;20562;-75
2023/01/25 00:43:10;;;;;;;44.83;20.17;;;;;;;;;;6049360;19;20144;-74
2023/01/25 00:45:18;;;;;;;40.53;18.70;;;;;;;;;;6026756;19;20678;-74
2023/01/25 00:47:50;;;;;;;44.92;19.23;;;;;;;;;;6041599;19;20349;-74
2023/01/25 00:50:01;;;;;;;38.25;17.05;;;;;;;;;;6019541;19;20340;-74
2023/01/25 00:52:26;;;;;;;41.17;19.23;;;;;;;;;;6023408;19;20011;-74
2023/01/25 00:54:38;;;;;;;45.28;18.75;;;;;;;;;;6043191;19;20498;-74
2023/01/25 00:56:51;;;;;;;45.45;19.55;;;;;;;;;;6024482;19;20023;-76
2023/01/25 00:59:06;;;;;;;48.88;21.13;;;;;;;;;;6036543;19;20006;-73
2023/01/25 01:01:15;;;;;;;43.60;20.00;;;;;;;;;;6038741;19;20027;-73
2023/01/25 01:03:28;;;;;;;47.38;21.02;;;;;;;;;;6019437;19;20435;-73
2023/01/25 01:05:41;;;;;;;52.70;19.83;;;;;;;;;;6039311;19;20042;-74
2023/01/25 01:08:01;;;;;;;45.45;19.90;;;;;;;;;;6044990;19;20042;-73
2023/01/25 01:10:15;;;;;;;45.40;20.23;;;;;;;;;;6034712;19;20028;-73
2023/01/25 01:12:23;;;;;;;42.08;18.20;;;;;;;;;;6038515;19;20010;-73
2023/01/25 01:14:39;;;;;;;52.38;21.17;;;;;;;;;;6012249;19;20246;-73
2023/01/25 01:16:49;;;;;;;40.08;19.20;;;;;;;;;;6015746;19;20058;-75
2023/01/25 01:19:09;;;;;;;43.08;19.73;;;;;;;;;;6022465;19;20261;-75
2023/01/25 01:21:36;;;;;;;43.00;19.08;;;;;;;;;;6043004;19;20217;-75
2023/01/25 01:23:49;;;;;;;47.50;19.50;;;;;;;;;;6027329;19;20042;-75
2023/01/25 01:25:57;;;;;;;43.70;19.85;;;;;;;;;;6023094;19;20279;-73
2023/01/25 01:28:12;;;;;;;40.47;16.38;;;;;;;;;;6019106;19;20299;-75
2023/01/25 01:30:27;;;;;;;;;;;;;;;;;;6028603;19;20266;-73
2023/01/25 01:32:37;;;;;;;46.42;19.27;;;;;;;;;;5996234;19;20566;-75
2023/01/25 01:34:49;;;;;;;48.72;19.85;;;;;;;;;;6020692;19;20313;-74
2023/01/25 01:37:01;;;;;;;49.53;20.10;;;;;;;;;;6026891;19;20491;-74
2023/01/25 01:39:14;;;;;;;42.28;19.27;;;;;;;;;;6020834;19;20060;-75
2023/01/25 01:41:27;;;;;;;47.97;19.83;;;;;;;;;;6045814;19;20530;-73
2023/01/25 01:43:40;;;;;;;48.60;19.88;;;;;;;;;;6032459;19;20493;-74
2023/01/25 01:46:02;;;;;;;43.88;17.83;;;;;;;;;;6020963;19;20352;-76
2023/01/25 01:48:15;;;;;;;49.03;20.15;;;;;;;;;;6015083;19;20078;-74
2023/01/25 01:50:26;;;;;;;51.30;20.38;;;;;;;;;;6043331;19;20538;-74
2023/01/25 01:53:10;;;;;;;;;;;;;;;;;;;;;
2023/01/25 01:55:23;;;;;;;44.60;18.33;;;;;;;;;;6020879;19;20071;-74
2023/01/25 01:57:42;;;;;;;48.58;18.60;;;;;;;;;;5997230;19;20297;-74
2023/01/25 01:59:52;;;;;;;45.00;20.52;;;;;;;;;;6000978;19;20394;-74
2023/01/25 02:02:01;;;;;;;49.53;19.92;;;;;;;;;;6043033;19;20363;-74
2023/01/25 02:04:15;;;;;;;45.70;17.80;;;;;;;;;;6040293;19;20307;-74
2023/01/25 02:06:33;;;;;;;49.10;18.88;;;;;;;;;;6042981;19;21085;-74
2023/01/25 02:08:40;;;;;;;49.20;19.45;;;;;;;;;;6026370;19;20018;-74
2023/01/25 02:10:50;;;;;;;41.92;18.52;;;;;;;;;;6007047;19;20147;-73
2023/01/25 02:13:01;;;;;;;42.47;17.63;;;;;;;;;;6006657;19;20370;-74
2023/01/25 02:15:15;;;;;;;48.20;18.80;;;;;;;;;;6031456;19;20308;-74
2023/01/25 02:17:29;;;;;;;49.42;19.45;;;;;;;;;;6012236;19;20339;-74
2023/01/25 02:19:45;;;;;;;44.60;19.38;;;;;;;;;;6052724;19;20009;-74
2023/01/25 02:22:09;;;;;;;46.08;20.48;;;;;;;;;;6011210;19;20003;-74
2023/01/25 02:24:31;;;;;;;47.00;18.98;;;;;;;;;;6028324;19;20370;-75
2023/01/25 02:26:49;;;;;;;49.80;21.45;;;;;;;;;;5976369;19;20010;-74
2023/01/25 02:29:01;;;;;;;53.42;20.77;;;;;;;;;;6061633;19;20019;-75
2023/01/25 02:31:07;;;;;;;52.80;21.25;;;;;;;;;;6050361;19;20010;-74
2023/01/25 02:33:14;;;;;;;43.38;18.98;;;;;;;;;;6048025;19;20014;-76
2023/01/25 02:35:21;;;;;;;40.75;17.45;;;;;;;;;;6046528;19;20015;-76
2023/01/25 02:37:26;;;;;;;44.72;19.90;;;;;;;;;;6043100;19;20421;-76
2023/01/25 02:39:31;;;;;;;47.45;19.05;;;;;;;;;;6047574;19;20026;-75
2023/01/25 02:41:38;;;;;;;46.60;19.88;;;;;;;;;;6045649;19;20275;-76
2023/01/25 02:43:47;;;;;;;44.33;19.02;;;;;;;;;;6044468;19;20066;-75
2023/01/25 02:45:56;;;;;;;46.28;19.42;;;;;;;;;;6044313;19;20509;-77
2023/01/25 02:48:04;;;;;;;47.97;19.05;;;;;;;;;;6040219;19;20003;-75
2023/01/25 02:50:11;;;;;;;54.28;21.55;;;;;;;;;;6041450;19;20003;-76
2023/01/25 02:52:18;;;;;;;44.53;17.67;;;;;;;;;;6042712;19;20136;-77
2023/01/25 02:54:24;;;;;;;47.92;18.88;;;;;;;;;;6032350;19;20191;-74
2023/01/25 02:56:31;;;;;;;43.45;19.50;;;;;;;;;;6042825;19;20495;-77
2023/01/25 02:58:36;;;;;;;50.28;21.08;;;;;;;;;;6042983;19;20206;-75
2023/01/25 03:00:44;;;;;;;46.50;18.92;;;;;;;;;;6043290;19;20517;-75
2023/01/25 03:02:49;;;;;;;48.20;17.80;;;;;;;;;;6039202;19;20361;-75
2023/01/25 03:04:55;;;;;;;47.97;19.13;;;;;;;;;;6041958;19;20394;-78
2023/01/25 03:07:00;;;;;;;51.50;22.85;;;;;;;;;;6042609;19;20705;-75
2023/01/25 03:09:07;;;;;;;43.40;19.48;;;;;;;;;;6043636;19;20408;-78
2023/01/25 03:11:14;;;;;;;50.88;19.70;;;;;;;;;;6045341;19;20100;-77
2023/01/25 03:13:19;;;;;;;45.28;19.38;;;;;;;;;;6042897;19;20485;-76
2023/01/25 03:15:24;;;;;;;48.63;19.90;;;;;;;;;;6044405;19;20035;-76
2023/01/25 03:17:34;;;;;;;49.50;20.33;;;;;;;;;;6048926;19;20475;-76
2023/01/25 03:19:39;;;;;;;45.35;19.88;;;;;;;;;;6046223;19;20058;-77
2023/01/25 03:21:45;;;;;;;53.13;19.45;;;;;;;;;;6047394;19;20190;-76
2023/01/25 03:24:00;;;;;;;38.08;17.60;;;;;;;;;;6047130;19;20544;-76
2023/01/25 03:26:14;;;;;;;44.90;18.17;;;;;;;;;;6045424;19;20392;-75
2023/01/25 03:28:19;;;;;;;47.22;19.42;;;;;;;;;;6044497;19;20389;-76
2023/01/25 03:30:25;;;;;;;43.15;19.52;;;;;;;;;;6050646;19;20033;-75
2023/01/25 03:32:34;;;;;;;48.78;20.90;;;;;;;;;;6047071;19;20024;-77
2023/01/25 03:34:39;;;;;;;46.35;20.67;;;;;;;;;;6047894;19;20161;-77
2023/01/25 03:36:44;;;;;;;45.85;18.67;;;;;;;;;;6046665;19;20504;-78
2023/01/25 03:38:50;;;;;;;54.33;21.50;;;;;;;;;;6048483;19;20437;-76
2023/01/25 03:40:56;;;;;;;51.90;22.17;;;;;;;;;;6049711;19;20255;-77
2023/01/25 03:43:01;;;;;;;45.10;19.80;;;;;;;;;;6047102;19;20644;-76
2023/01/25 03:45:07;;;;;;;44.20;18.38;;;;;;;;;;6043953;19;20110;-77
2023/01/25 03:47:15;;;;;;;50.58;20.98;;;;;;;;;;6049022;19;20537;-76
2023/01/25 03:49:22;;;;;;;40.97;18.48;;;;;;;;;;6050679;19;20299;-79
2023/01/25 03:51:28;;;;;;;46.88;19.08;;;;;;;;;;6048031;19;20241;-76
2023/01/25 03:53:35;;;;;;;50.55;20.90;;;;;;;;;;6041585;19;20349;-76
2023/01/25 03:55:40;;;;;;;52.47;20.95;;;;;;;;;;6046973;19;20026;-76
2023/01/25 03:57:47;;;;;;;47.22;20.08;;;;;;;;;;6049085;19;20011;-77
2023/01/25 03:59:52;;;;;;;46.35;21.35;;;;;;;;;;6044206;19;20019;-76
2023/01/25 04:02:13;;;;;;;;;;;;;;;;;;;;;
2023/01/25 04:04:25;;;;;;;44.40;18.98;;;;;;;;;;6052533;19;20028;-74
2023/01/25 04:06:47;;;;;;;49.97;20.10;;;;;;;;;;5984128;19;20339;-74
2023/01/25 04:09:02;;;;;;;54.42;19.92;;;;;;;;;;6047615;19;20017;-74
2023/01/25 04:11:09;;;;;;;48.80;22.15;;;;;;;;;;6019956;19;20011;-74
2023/01/25 04:13:23;;;;;;;46.30;19.30;;;;;;;;;;6053015;19;20180;-74
2023/01/25 04:15:33;;;;;;;47.88;19.58;;;;;;;;;;6016511;19;20014;-74
2023/01/25 04:17:43;;;;;;;47.60;20.80;;;;;;;;;;6019203;19;20067;-74
2023/01/25 04:19:54;;;;;;;43.40;20.80;;;;;;;;;;6024415;19;20815;-75
2023/01/25 04:22:11;;;;;;;46.65;19.70;;;;;;;;;;6022362;19;20437;-74
2023/01/25 04:24:26;;;;;;;56.25;19.77;;;;;;;;;;6041552;19;20323;-73
2023/01/25 04:26:46;;;;;;;50.08;19.23;;;;;;;;;;6021598;19;20252;-73
2023/01/25 04:29:05;;;;;;;54.33;20.80;;;;;;;;;;6024126;19;20018;-73
2023/01/25 04:31:23;;;;;;;51.10;21.35;;;;;;;;;;5983375;19;20670;-75
2023/01/25 04:33:39;;;;;;;50.65;18.65;;;;;;;;;;5995638;19;20470;-73
2023/01/25 04:35:53;;;;;;;46.65;21.05;;;;;;;;;;5992213;19;20332;-74
2023/01/25 04:38:08;;;;;;;52.13;20.77;;;;;;;;;;6019582;19;21449;-75
2023/01/25 04:40:25;;;;;;;50.28;20.70;;;;;;;;;;6036335;19;20408;-74
2023/01/25 04:42:36;;;;;;;58.75;21.90;;;;;;;;;;6002054;19;20020;-74
2023/01/25 04:44:45;;;;;;;51.88;19.35;;;;;;;;;;5979457;19;20012;-74
2023/01/25 04:46:53;;;;;;;46.03;20.15;;;;;;;;;;6021230;19;20357;-74
2023/01/25 04:49:11;;;;;;;55.95;22.00;;;;;;;;;;6038230;19;20293;-74
2023/01/25 04:51:26;;;;;;;54.28;20.90;;;;;;;;;;6046854;19;20011;-76
2023/01/25 04:53:37;;;;;;;49.38;19.55;;;;;;;;;;6024848;19;20373;-73
2023/01/25 04:55:48;;;;;;;52.65;21.45;;;;;;;;;;6025584;19;20489;-75
2023/01/25 04:57:58;;;;;;;57.60;22.10;;;;;;;;;;6046782;19;20006;-73
2023/01/25 05:00:06;;;;;;;54.97;22.13;;;;;;;;;;6019941;19;20569;-75
2023/01/25 05:02:19;;;;;;;50.80;20.38;;;;;;;;;;6005093;19;20260;-76
2023/01/25 05:04:28;;;;;;;53.28;20.60;;;;;;;;;;5978888;19;20225;-74
2023/01/25 05:06:45;;;;;;;52.17;20.75;;;;;;;;;;6004262;19;20200;-75
2023/01/25 05:09:08;;;;;;;64.00;22.65;;;;;;;;;;6025898;19;20017;-73
2023/01/25 05:11:19;;;;;;;52.65;19.80;;;;;;;;;;6027435;19;20409;-73
2023/01/25 05:13:25;;;;;;;55.67;21.35;;;;;;;;;;6047819;19;20082;-73
2023/01/25 05:15:35;;;;;;;51.40;20.52;;;;;;;;;;6006668;19;20428;-75
2023/01/25 05:17:52;;;;;;;57.13;20.33;;;;;;;;;;6040894;19;20011;-73
2023/01/25 05:20:07;;;;;;;59.28;22.27;;;;;;;;;;6028892;19;21391;-75
2023/01/25 05:22:22;;;;;;;51.00;20.80;;;;;;;;;;6004392;19;20010;-73
2023/01/25 05:24:31;;;;;;;58.50;22.05;;;;;;;;;;5992772;19;20007;-73
2023/01/25 05:29:01;;;;;;;51.38;21.30;;;;;;;;;;6021316;19;21591;-76
2023/01/25 05:31:07;;;;;;;53.67;21.25;;;;;;;;;;6049046;19;20011;-77
2023/01/25 05:33:12;;;;;;;53.53;22.83;;;;;;;;;;6046812;19;20389;-78
2023/01/25 05:35:21;;;;;;;50.47;20.70;;;;;;;;;;6052606;19;20007;-77
2023/01/25 05:37:32;;;;;;;60.30;22.85;;;;;;;;;;6047048;19;20019;-78
2023/01/25 05:39:37;;;;;;;52.15;22.73;;;;;;;;;;6048650;19;20003;-78
2023/01/25 05:41:42;;;;;;;54.95;21.58;;;;;;;;;;6047523;19;20010;-76
2023/01/25 05:43:49;;;;;;;53.42;22.50;;;;;;;;;;6050041;19;20010;-76
2023/01/25 05:45:57;;;;;;;51.58;21.70;;;;;;;;;;6048200;19;20017;-76
2023/01/25 05:48:04;;;;;;;55.97;22.17;;;;;;;;;;6051181;19;20017;-76
2023/01/25 05:50:10;;;;;;;53.08;20.98;;;;;;;;;;6024000;19;20410;-77
2023/01/25 05:52:18;;;;;;;58.78;22.02;;;;;;;;;;6045072;19;20205;-76
2023/01/25 05:54:26;;;;;;;55.33;22.63;;;;;;;;;;6038278;19;20015;-76
2023/01/25 05:56:31;;;;;;;59.08;23.50;;;;;;;;;;6043157;19;20018;-75
2023/01/25 05:58:36;;;;;;;56.22;20.48;;;;;;;;;;6043053;19;20048;-76
2023/01/25 06:00:42;;;;;;;48.20;20.10;;;;;;;;;;6047612;19;21400;-76
2023/01/25 06:02:47;;;;;;;58.78;21.85;;;;;;;;;;6044715;19;20186;-76
2023/01/25 06:04:53;;;;;;;61.53;24.05;;;;;;;;;;6044576;19;20034;-77
2023/01/25 06:07:00;;;;;;;52.90;21.83;;;;;;;;;;6047562;19;20011;-76
2023/01/25 06:09:09;;;;;;;51.90;20.73;;;;;;;;;;6044376;19;20014;-76
2023/01/25 06:11:18;;;;;;;63.88;24.00;;;;;;;;;;6043292;19;20672;-76
2023/01/25 06:13:27;;;;;;;57.30;21.33;;;;;;;;;;6043929;19;20415;-76
2023/01/25 06:15:35;;;;;;;53.17;20.38;;;;;;;;;;6043827;19;20427;-76
2023/01/25 06:17:40;;;;;;;56.95;20.55;;;;;;;;;;6042927;19;20338;-75
2023/01/25 06:19:49;;;;;;;54.35;21.80;;;;;;;;;;6045379;19;20011;-78
2023/01/25 06:21:54;;;;;;;66.47;25.48;;;;;;;;;;6041371;19;20042;-76
2023/01/25 06:24:01;;;;;;;63.67;24.67;;;;;;;;;;6045232;19;20061;-76
2023/01/25 06:26:08;;;;;;;56.35;21.50;;;;;;;;;;6045587;19;20196;-76
2023/01/25 06:28:19;;;;;;;53.05;21.65;;;;;;;;;;6043868;19;20014;-77
2023/01/25 06:30:24;;;;;;;61.75;23.65;;;;;;;;;;6040586;19;20031;-77
2023/01/25 06:32:34;;;;;;;55.90;21.73;;;;;;;;;;6041787;19;20244;-76
2023/01/25 06:34:39;;;;;;;53.38;21.33;;;;;;;;;;6040498;19;20046;-77
2023/01/25 06:36:44;;;;;;;56.75;22.58;;;;;;;;;;6041298;19;20379;-77
2023/01/25 06:38:51;;;;;;;60.42;23.60;;;;;;;;;;6044794;19;20025;-77
2023/01/25 06:40:56;;;;;;;60.65;23.60;;;;;;;;;;6044766;19;20322;-77
2023/01/25 06:43:08;;;;;;;60.45;23.60;;;;;;;;;;6048985;19;20399;-76
2023/01/25 06:45:17;;;;;;;59.53;23.08;;;;;;;;;;6049549;19;20513;-77
2023/01/25 06:47:23;;;;;;;63.83;24.08;;;;;;;;;;6050874;19;20562;-77
2023/01/25 06:49:28;;;;;;;66.75;23.92;;;;;;;;;;6047236;19;20315;-77
2023/01/25 06:51:33;;;;;;;66.15;25.88;;;;;;;;;;6045646;19;20021;-77
2023/01/25 06:53:40;;;;;;;66.95;25.35;;;;;;;;;;6044078;19;20019;-77
2023/01/25 06:55:47;;;;;;;62.00;24.23;;;;;;;;;;6046331;19;20074;-77
2023/01/25 06:57:52;;;;;;;68.43;27.40;;;;;;;;;;6049345;19;20042;-77
2023/01/25 06:59:57;;;;;;;59.72;22.42;;;;;;;;;;6085531;19;20327;-77
2023/01/25 07:02:05;;;;;;;65.75;24.95;;;;;;;;;;6066069;19;20751;-77
2023/01/25 07:04:14;;;;;;;59.10;22.60;;;;;;;;;;6048873;19;20086;-77
2023/01/25 07:06:20;;;;;;;62.10;22.98;;;;;;;;;;6048635;19;20650;-78
2023/01/25 07:08:25;;;;;;;62.25;23.90;;;;;;;;;;6047249;19;20485;-76
2023/01/25 07:10:30;;;;;;;56.70;25.20;;;;;;;;;;6047800;19;20894;-77
2023/01/25 07:12:37;;;;;;;62.97;23.20;;;;;;;;;;6049275;19;20027;-77
2023/01/25 07:14:42;;;;;;;74.45;26.15;;;;;;;;;;6052501;19;20041;-76
2023/01/25 07:16:48;;;;;;;56.47;24.70;;;;;;;;;;6049818;19;20484;-76
2023/01/25 07:18:56;;;;;;;62.67;24.17;;;;;;;;;;6051224;19;20446;-76
2023/01/25 07:21:05;;;;;;;59.13;25.08;;;;;;;;;;6052571;19;20014;-78
2023/01/25 07:23:10;;;;;;;70.78;27.13;;;;;;;;;;6051331;19;20433;-76
2023/01/25 07:25:17;;;;;;;65.43;23.70;;;;;;;;;;6058891;19;20015;-78
2023/01/25 07:27:22;;;;;;;72.32;25.88;;;;;;;;;;6065114;19;20042;-76
2023/01/25 07:29:27;;;;;;;63.15;22.15;;;;;;;;;;6055552;19;20010;-76
2023/01/25 07:31:35;;;;;;;61.58;23.20;;;;;;;;;;6054342;19;20010;-77
2023/01/25 07:33:40;;;;;;;63.30;22.83;;;;;;;;;;6055155;19;20010;-77
2023/01/25 07:35:49;;;;;;;71.78;26.20;;;;;;;;;;6057462;19;20024;-76
2023/01/25 07:37:54;;;;;;;60.75;23.75;;;;;;;;;;6058630;19;20228;-76
2023/01/25 07:40:00;;;;;;;59.30;23.02;;;;;;;;;;6059097;19;20510;-77
2023/01/25 07:42:05;;;;;;;67.35;26.08;;;;;;;;;;6059791;19;20011;-76
2023/01/25 07:44:14;;;;;;;69.05;25.58;;;;;;;;;;6074898;19;20646;-76
2023/01/25 07:46:20;;;;;;;66.45;23.65;;;;;;;;;;6070328;19;20023;-76
2023/01/25 07:48:25;;;;;;;62.50;25.13;;;;;;;;;;6069754;19;20399;-77
2023/01/25 07:50:30;;;;;;;65.35;26.85;;;;;;;;;;6097363;19;20011;-76
2023/01/25 07:52:38;;;;;;;72.05;26.40;;;;;;;;;;6102874;19;20011;-77
2023/01/25 07:54:45;;;;;;;61.20;23.70;;;;;;;;;;6106579;19;20003;-77
2023/01/25 07:56:53;;;;;;;60.22;22.92;;;;;;;;;;6110417;19;20007;-77
2023/01/25 07:59:01;;;;;;;65.47;23.55;;;;;;;;;;6108346;19;20218;-77
2023/01/25 08:01:09;;;;;;;70.60;26.10;;;;;;;;;;6087641;19;20010;-76
2023/01/25 08:03:14;;;;;;;59.00;23.30;;;;;;;;;;6113791;19;20035;-76
2023/01/25 08:05:20;;;;;;;73.13;24.88;;;;;;;;;;6114698;19;20470;-77
2023/01/25 08:07:25;;;;;;;69.60;24.40;;;;;;;;;;6113179;19;20010;-78
2023/01/25 08:09:33;;;;;;;66.70;23.50;;;;;;;;;;6112673;19;20011;-77
2023/01/25 08:11:38;;;;;;;54.63;21.73;;;;;;;;;;6105984;19;20018;-76
2023/01/25 08:13:48;;;;;;;66.32;23.88;;;;;;;;;;6110334;19;20037;-76
2023/01/25 08:15:56;;;;;;;63.25;26.15;;;;;;;;;;6109469;19;20011;-76
2023/01/25 08:18:01;;;;;;;64.82;25.33;;;;;;;;;;6106701;19;20007;-76
2023/01/25 08:20:08;;;;;;;60.95;21.92;;;;;;;;;;6107629;19;20015;-76
2023/01/25 08:22:14;;;;;;;67.70;23.75;;;;;;;;;;6106824;19;20011;-76
2023/01/25 08:24:20;;;;;;;74.53;26.33;;;;;;;;;;6108655;19;20554;-76
2023/01/25 08:26:37;;;;;;;63.22;23.45;;;;;;;;;;6103318;19;20085;-76
2023/01/25 08:28:42;;;;;;;66.32;25.90;;;;;;;;;;6106202;19;20098;-77
2023/01/25 08:30:47;;;;;;;67.28;24.92;;;;;;;;;;6106302;19;20014;-77
2023/01/25 08:33:01;;;;;;;61.22;21.92;;;;;;;;;;6108224;19;20034;-76
2023/01/25 08:35:10;;;;;;;58.00;23.05;;;;;;;;;;6079062;19;20010;-75
2023/01/25 08:37:19;;;;;;;58.88;23.02;;;;;;;;;;6102697;19;20006;-77
2023/01/25 08:39:24;;;;;;;64.80;24.45;;;;;;;;;;6105937;19;20089;-77
2023/01/25 08:41:35;;;;;;;62.80;23.85;;;;;;;;;;6105799;19;20027;-76
2023/01/25 08:43:40;;;;;;;67.78;27.65;;;;;;;;;;6104751;19;20086;-76
2023/01/25 08:45:45;;;;;;;65.68;24.60;;;;;;;;;;6106281;19;20050;-77
2023/01/25 08:47:50;;;;;;;70.38;25.52;;;;;;;;;;6103319;19;20843;-77
2023/01/25 08:49:55;;;;;;;61.28;22.77;;;;;;;;;;6102622;19;20277;-75
2023/01/25 08:52:00;;;;;;;60.75;25.77;;;;;;;;;;6105009;19;20019;-77
2023/01/25 08:54:06;;;;;;;69.95;29.13;;;;;;;;;;6102176;19;20042;-76
2023/01/25 08:56:16;;;;;;;65.72;26.02;;;;;;;;;;6100946;19;20038;-74
2023/01/25 08:58:25;;;;;;;58.65;24.85;;;;;;;;;;6082780;19;20026;-75
2023/01/25 09:00:32;;;;;;;68.78;25.83;;;;;;;;;;6100660;19;20011;-75
2023/01/25 09:02:38;;;;;;;82.03;28.30;;;;;;;;;;6104995;19;20450;-75
2023/01/25 09:04:43;;;;;;;68.60;25.17;;;;;;;;;;6099393;19;20032;-75
2023/01/25 09:06:49;;;;;;;69.47;26.30;;;;;;;;;;6104733;19;20480;-76
2023/01/25 09:08:54;;;;;;;75.00;26.27;;;;;;;;;;6105051;19;20013;-76
2023/01/25 09:11:11;;;;;;;65.65;24.50;;;;;;;;;;6073771;19;20368;-74
2023/01/25 09:13:18;;;;;;;69.45;26.20;;;;;;;;;;6096437;19;20018;-73
2023/01/25 09:15:28;;;;;;;65.53;24.92;;;;;;;;;;6099632;19;20147;-74
2023/01/25 09:17:40;;;;;;;63.95;24.77;;;;;;;;;;6104781;19;20046;-73
2023/01/25 09:19:47;;;;;;;70.47;25.45;;;;;;;;;;6100015;19;20029;-75
2023/01/25 09:21:52;;;;;;;59.42;24.50;;;;;;;;;;6104778;19;20377;-76
2023/01/25 09:23:57;;;;;;;64.65;24.98;;;;;;;;;;6104718;19;20031;-77
2023/01/25 09:26:14;;;;;;;67.03;25.80;;;;;;;;;;6103644;19;20018;-76
2023/01/25 09:28:20;;;;;;;73.22;27.42;;;;;;;;;;6081606;19;20014;-76
2023/01/25 09:30:31;;;;;;;74.38;27.98;;;;;;;;;;6076795;19;20558;-73
2023/01/25 09:32:56;;;;;;;70.63;24.92;;;;;;;;;;6105680;19;20690;-76
2023/01/25 09:35:01;;;;;;;61.38;24.67;;;;;;;;;;6106424;19;20052;-76
2023/01/25 09:37:06;;;;;;;68.13;24.60;;;;;;;;;;6105175;19;20007;-76
2023/01/25 09:39:14;;;;;;;73.75;27.30;;;;;;;;;;6105302;19;20758;-78
2023/01/25 09:41:36;;;;;;;64.88;25.80;;;;;;;;;;6103293;19;20054;-76
2023/01/25 09:43:52;;;;;;;66.47;25.45;;;;;;;;;;6102325;19;20003;-76
2023/01/25 09:46:02;;;;;;;64.75;22.58;;;;;;;;;;6105084;19;20492;-76
2023/01/25 09:48:15;;;;;;;69.68;25.70;;;;;;;;;;6105971;19;20006;-75
2023/01/25 09:50:31;;;;;;;78.97;25.63;;;;;;;;;;6105000;19;20034;-78
2023/01/25 09:53:08;;;;;;;70.45;25.00;;;;;;;;;;6097699;19;20023;-74
2023/01/25 09:55:21;;;;;;;66.47;24.40;;;;;;;;;;6103653;19;20106;-74
2023/01/25 09:57:32;;;;;;;72.40;24.83;;;;;;;;;;6100208;19;20474;-76
2023/01/25 09:59:40;;;;;;;63.08;22.58;;;;;;;;;;6077687;19;20025;-74
2023/01/25 10:01:55;;;;;;;66.43;25.13;;;;;;;;;;6053682;19;20016;-76
2023/01/25 10:04:09;;;;;;;72.55;27.23;;;;;;;;;;6059203;19;20014;-74
2023/01/25 10:06:19;;;;;;;73.07;26.77;;;;;;;;;;6095331;19;20010;-75
2023/01/25 10:08:40;;;;;;;68.45;25.77;;;;;;;;;;6069388;19;20471;-75
2023/01/25 10:10:53;;;;;;;72.32;27.55;;;;;;;;;;6092760;19;20046;-74
2023/01/25 10:12:59;;;;;;;60.45;25.20;;;;;;;;;;6100058;19;20066;-75
2023/01/25 10:15:24;;;;;;;64.50;24.67;;;;;;;;;;6077250;19;20485;-75
2023/01/25 10:17:37;;;;;;;70.28;23.88;;;;;;;;;;6097647;19;20014;-76
2023/01/25 10:20:01;;;;;;;67.43;23.73;;;;;;;;;;6105796;19;20348;-76
2023/01/25 10:22:15;;;;;;;72.38;26.90;;;;;;;;;;6102775;19;20404;-75
2023/01/25 10:24:32;;;;;;;59.63;21.90;;;;;;;;;;6100216;19;20038;-74
2023/01/25 10:26:41;;;;;;;62.50;20.50;;;;;;;;;;6069668;19;20386;-74
2023/01/25 10:28:54;;;;;;;66.68;23.42;;;;;;;;;;6073673;19;20014;-73
2023/01/25 10:31:14;;;;;;;61.95;23.58;;;;;;;;;;6029813;19;20094;-74
2023/01/25 10:33:26;;;;;;;70.35;27.35;;;;;;;;;;6073871;19;20014;-74
2023/01/25 10:35:40;;;;;;;54.45;23.48;;;;;;;;;;6056079;19;20022;-75
2023/01/25 10:37:53;;;;;;;58.13;24.85;;;;;;;;;;6097936;19;20610;-75
2023/01/25 10:40:03;;;;;;;60.90;25.08;;;;;;;;;;6056255;19;20114;-75
2023/01/25 10:42:15;;;;;;;54.53;22.88;;;;;;;;;;6099278;19;20520;-74
2023/01/25 10:44:24;;;;;;;58.47;22.75;;;;;;;;;;6100490;19;20035;-75
2023/01/25 10:46:33;;;;;;;69.90;25.92;;;;;;;;;;6049247;19;20056;-75
2023/01/25 10:48:41;;;;;;;58.65;23.65;;;;;;;;;;6103546;19;20013;-78
2023/01/25 10:50:52;;;;;;;74.65;25.15;;;;;;;;;;6101290;19;20020;-80
2023/01/25 10:53:01;;;;;;;64.07;26.40;;;;;;;;;;6098019;19;20014;-79
2023/01/25 10:55:19;;;;;;;65.22;26.20;;;;;;;;;;6093330;19;20096;-77
2023/01/25 10:57:24;;;;;;;71.55;26.20;;;;;;;;;;6100152;19;20010;-75
2023/01/25 10:59:30;;;;;;;65.53;24.42;;;;;;;;;;6101652;19;20015;-75
2023/01/25 11:01:37;;;;;;;62.50;23.95;;;;;;;;;;6103937;19;20014;-76
2023/01/25 11:03:55;;;;;;;61.88;24.30;;;;;;;;;;6097440;19;20541;-74
2023/01/25 11:06:04;;;;;;;63.80;24.83;;;;;;;;;;6099613;19;20461;-74
2023/01/25 11:08:30;;;;;;;68.70;26.02;;;;;;;;;;6057673;19;20385;-73
2023/01/25 11:10:51;;;;;;;58.22;22.67;;;;;;;;;;6067633;19;20494;-74
2023/01/25 11:13:18;;;;;;;60.10;24.70;;;;;;;;;;6096683;19;20393;-76
2023/01/25 11:15:30;;;;;;;80.18;27.42;;;;;;;;;;6104969;19;20050;-76
2023/01/25 11:17:35;;;;;;;64.97;25.33;;;;;;;;;;6095562;19;20010;-76
2023/01/25 11:19:43;;;;;;;73.95;26.60;;;;;;;;;;6102827;19;20038;-76
2023/01/25 11:26:43;;;;;;;76.05;27.00;;;;;;;;;;6073858;19;20132;-78
2023/01/25 11:29:08;;;;;;;68.70;27.05;;;;;;;;;;6107367;19;20011;-78
2023/01/25 11:31:15;;;;;;;83.82;27.73;;;;;;;;;;6105683;19;20589;-77
2023/01/25 11:33:23;;;;;;;68.22;24.75;;;;;;;;;;6107770;19;20014;-76
2023/01/25 11:35:33;;;;;;;78.40;28.55;;;;;;;;;;6098287;19;20007;-77
2023/01/25 11:37:47;;;;;;;72.45;27.50;;;;;;;;;;6106377;19;20010;-76
2023/01/25 11:40:01;;;;;;;70.68;27.80;;;;;;;;;;6105920;19;20090;-73
2023/01/25 11:42:30;;;;;;;74.68;26.20;;;;;;;;;;6078657;19;20010;-73
2023/01/25 11:44:54;;;;;;;63.28;25.13;;;;;;;;;;6075170;19;20010;-73
2023/01/25 11:47:11;;;;;;;74.72;29.33;;;;;;;;;;6102611;19;20050;-76
2023/01/25 11:49:29;;;;;;;77.70;28.92;;;;;;;;;;6106712;19;20014;-76
2023/01/25 11:51:43;;;;;;;65.75;27.27;;;;;;;;;;6106598;19;20371;-77
2023/01/25 11:53:49;;;;;;;;;;;;;;;;;;6106966;19;20029;-75
2023/01/25 11:55:58;;;;;;;71.13;25.67;;;;;;;;;;6093903;19;19910;-76
2023/01/25 11:58:26;;;;;;;75.85;28.58;;;;;;;;;;6097646;19;20011;-74
2023/01/25 12:00:58;;;;;;;65.90;26.33;;;;;;;;;;6054316;19;20017;-73
2023/01/25 12:03:54;;;;;;;63.47;23.73;;;;;;;;;;6102452;19;20041;-76
2023/01/25 12:06:31;;;;;;;59.05;24.73;;;;;;;;;;6081512;19;20036;-74
2023/01/25 12:09:06;;;;;;;78.03;27.25;;;;;;;;;;6103309;19;20018;-73
2023/01/25 12:11:16;;;;;;;75.70;25.48;;;;;;;;;;6109396;19;20038;-76
2023/01/25 12:13:26;;;;;;;78.63;28.60;;;;;;;;;;6108827;19;20027;-78
2023/01/25 12:15:53;;;;;;;58.58;23.88;;;;;;;;;;6110640;19;20519;-76
2023/01/25 12:18:14;;;;;;;70.22;26.10;;;;;;;;;;6111090;19;19998;-77
2023/01/25 12:20:33;;;;;;;72.63;24.35;;;;;;;;;;6107187;19;20070;-76
2023/01/25 12:22:51;;;;;;;65.38;24.73;;;;;;;;;;6104174;19;20015;-76
2023/01/25 12:25:05;;;;;;;68.03;24.88;;;;;;;;;;6067743;19;20018;-74
2023/01/25 12:27:22;;;;;;;64.20;25.73;;;;;;;;;;6105402;19;20049;-77
2023/01/25 12:29:45;;;;;;;65.97;25.67;;;;;;;;;;6108394;19;20014;-75
2023/01/25 12:32:00;;;;;;;67.85;27.42;;;;;;;;;;6078980;19;20267;-73
2023/01/25 12:34:24;;;;;;;66.90;26.05;;;;;;;;;;6104000;19;20489;-73
2023/01/25 12:36:36;;;;;;;71.35;25.33;;;;;;;;;;6078551;19;20379;-75
2023/01/25 12:38:46;;;;;;;67.43;26.08;;;;;;;;;;6109111;19;20384;-76
2023/01/25 12:43:44;;;;;;;63.35;23.38;;;;;;;;;;6103979;19;20474;-73
2023/01/25 12:45:58;;;;;;;69.32;24.73;;;;;;;;;;6041059;19;20023;-75
2023/01/25 12:48:17;;;;;;;60.97;24.95;;;;;;;;;;6106949;19;20020;-73
2023/01/25 12:50:34;;;;;;;67.03;24.73;;;;;;;;;;6098243;19;20014;-74
2023/01/25 12:52:47;;;;;;;67.90;22.80;;;;;;;;;;5998277;19;20006;-76
2023/01/25 12:54:53;;;;;;;66.57;27.02;;;;;;;;;;6106956;19;20011;-74
2023/01/25 12:57:11;;;;;;;65.40;23.58;;;;;;;;;;6106386;19;20534;-76